Terminal Aerodrome Forecast
Issued by NWS

Home | Current Version | Previous Version | Text Only | Print | Product List | Glossary Off
Versions: 1 2 3 4 5 6 7 8 9 10 11 12 13 14 15

000
FTUS43 KIWX 271721
TAFSBN
TAF
KSBN 271721Z 2718/2818 24016G26KT P6SM OVC025
     FM280100 23010KT P6SM BKN025
     FM280300 21007KT P6SM BKN035
     FM281000 19006KT P6SM BKN070=

USA.gov is the U.S. government's official web portal to all federal, state and local government web resources and services.